Time;durP1;ratioP1;P1;durP2;ratioP2;P2;SDS_P1;SDS_P2;PMS_P1;PMS_P2;Temp;Humidity;BMP_temperature;BMP_pressure;BME280_temperature;BME280_humidity;BME280_pressure;Samples;Min_cycle;Max_cycle;Signal;HPM_P1;HPM_P2
2022/01/11 00:00:36;;;;;;;28.23;13.05;;;1.60;88.00;;;;;;5015149;28;24122;-67
2022/01/11 00:03:03;;;;;;;15.43;8.85;;;1.50;87.80;;;;;;5019369;28;20057;-69
2022/01/11 00:05:35;;;;;;;13.13;7.95;;;1.40;87.00;;;;;;5018005;28;20029;-65
2022/01/11 00:08:01;;;;;;;14.90;8.15;;;1.30;87.40;;;;;;5016533;28;20045;-65
2022/01/11 00:10:34;;;;;;;15.90;9.13;;;1.10;87.30;;;;;;5022114;28;20042;-65
2022/01/11 00:13:01;;;;;;;15.93;8.85;;;1.00;87.90;;;;;;5018078;28;20041;-66
2022/01/11 00:15:27;;;;;;;20.00;11.07;;;1.00;88.20;;;;;;5019407;28;20108;-67
2022/01/11 00:17:53;;;;;;;19.70;11.43;;;0.90;88.20;;;;;;5015454;28;20471;-66
2022/01/11 00:20:22;;;;;;;20.20;11.38;;;0.90;88.60;;;;;;5021508;28;20048;-66
2022/01/11 00:25:37;;;;;;;21.35;11.10;;;0.80;88.90;;;;;;5021242;28;20501;-66
2022/01/11 00:28:07;;;;;;;20.60;10.57;;;0.70;88.80;;;;;;5017306;28;20037;-67
2022/01/11 00:30:36;;;;;;;14.55;9.05;;;0.70;89.10;;;;;;5013297;28;20033;-66
2022/01/11 00:33:07;;;;;;;15.55;9.20;;;0.70;89.00;;;;;;5016167;28;20500;-67
2022/01/11 00:38:26;;;;;;;;;;;0.60;89.40;;;;;;5014592;28;20049;-67
2022/01/11 00:40:54;;;;;;;15.13;8.90;;;0.50;89.80;;;;;;5015027;28;20055;-66
2022/01/11 00:43:23;;;;;;;16.00;8.35;;;0.50;89.90;;;;;;5014347;28;20369;-67
2022/01/11 00:45:51;;;;;;;12.80;7.65;;;0.40;89.90;;;;;;5015616;28;20030;-67
2022/01/11 00:48:17;;;;;;;12.88;8.05;;;0.40;90.10;;;;;;5014773;28;20531;-68
2022/01/11 00:50:44;;;;;;;14.13;8.15;;;0.40;90.40;;;;;;5018258;28;20032;-66
2022/01/11 00:53:10;;;;;;;13.73;7.85;;;0.40;90.30;;;;;;5017405;28;20151;-67
2022/01/11 00:55:38;;;;;;;14.38;7.45;;;0.30;89.70;;;;;;5017164;28;20087;-67
2022/01/11 00:58:05;;;;;;;12.95;7.18;;;0.10;89.60;;;;;;5021651;28;20779;-67
2022/01/11 01:00:32;;;;;;;12.85;7.82;;;-0.10;90.40;;;;;;5015024;28;20102;-67
2022/01/11 01:02:58;;;;;;;13.18;7.32;;;-0.10;90.60;;;;;;5016273;28;20068;-68
2022/01/11 01:05:24;;;;;;;13.98;7.68;;;-0.20;90.80;;;;;;5016241;28;20439;-68
2022/01/11 01:07:53;;;;;;;15.18;7.30;;;-0.20;90.80;;;;;;5019028;28;20480;-68
2022/01/11 01:10:26;;;;;;;12.60;7.28;;;-0.20;90.90;;;;;;5019253;28;20022;-68
2022/01/11 01:12:54;;;;;;;11.18;7.05;;;-0.30;91.10;;;;;;5018170;28;20146;-68
2022/01/11 01:15:22;;;;;;;12.25;7.20;;;-0.40;91.10;;;;;;5017059;28;20088;-68
2022/01/11 01:17:48;;;;;;;16.50;9.07;;;-0.40;91.30;;;;;;5010632;28;20057;-68
2022/01/11 01:20:14;;;;;;;13.80;7.50;;;-0.40;91.20;;;;;;5016438;28;20084;-68
2022/01/11 01:22:40;;;;;;;15.98;9.20;;;-0.40;91.30;;;;;;5013882;28;20045;-68
2022/01/11 01:25:06;;;;;;;20.05;8.75;;;-0.40;91.30;;;;;;5015092;28;20033;-68
2022/01/11 01:27:32;;;;;;;15.60;8.68;;;-0.40;91.10;;;;;;5013747;28;20034;-68
2022/01/11 01:30:01;;;;;;;14.95;8.52;;;-0.40;91.10;;;;;;5011932;28;20040;-68
2022/01/11 01:32:27;;;;;;;16.67;9.23;;;-0.40;91.40;;;;;;5020530;28;21250;-68
2022/01/11 01:34:55;;;;;;;16.40;8.57;;;-0.40;91.30;;;;;;5017663;28;20030;-68
2022/01/11 01:37:20;;;;;;;16.67;7.80;;;-0.40;91.30;;;;;;5020895;28;20017;-68
2022/01/11 01:39:46;;;;;;;15.38;7.43;;;-0.40;91.30;;;;;;5018697;28;20379;-68
2022/01/11 01:42:12;;;;;;;13.43;7.57;;;-0.40;91.40;;;;;;5015845;28;20474;-68
2022/01/11 01:44:40;;;;;;;15.60;7.70;;;-0.40;91.60;;;;;;5017032;28;20532;-68
2022/01/11 01:47:07;;;;;;;15.75;8.55;;;-0.30;91.50;;;;;;5015160;28;20096;-67
2022/01/11 01:49:35;;;;;;;14.82;8.23;;;-0.40;91.40;;;;;;5023564;28;20099;-68
2022/01/11 01:52:02;;;;;;;12.70;7.43;;;-0.50;91.20;;;;;;5019276;28;20062;-68
2022/01/11 01:54:27;;;;;;;9.75;5.80;;;-0.50;91.20;;;;;;5020048;28;20091;-68
2022/01/11 01:56:53;;;;;;;10.00;5.47;;;-0.70;90.80;;;;;;5017703;28;20050;-67
2022/01/11 01:59:20;;;;;;;12.48;6.75;;;-0.70;90.90;;;;;;5016209;28;20037;-68
2022/01/11 02:01:47;;;;;;;10.85;5.68;;;-0.90;91.50;;;;;;5016289;28;20033;-68
2022/01/11 02:04:15;;;;;;;11.05;6.30;;;-0.90;91.50;;;;;;5013143;28;20022;-68
2022/01/11 02:06:41;;;;;;;9.73;5.97;;;-0.90;91.70;;;;;;5017606;28;20033;-68
2022/01/11 02:09:16;;;;;;;9.82;6.22;;;-0.90;91.70;;;;;;5015351;28;20037;-68
2022/01/11 02:11:43;;;;;;;13.57;7.65;;;-0.90;91.60;;;;;;5016990;28;20042;-68
2022/01/11 02:14:09;;;;;;;18.60;10.55;;;-0.90;91.70;;;;;;5019170;28;20079;-68
2022/01/11 02:16:35;;;;;;;20.30;10.93;;;-1.00;91.70;;;;;;5011150;28;20030;-68
2022/01/11 02:19:01;;;;;;;16.58;10.45;;;-0.90;91.80;;;;;;5013718;28;20045;-68
2022/01/11 02:21:27;;;;;;;20.23;10.07;;;-0.90;92.00;;;;;;5014204;28;20061;-68
2022/01/11 02:23:53;;;;;;;10.68;6.10;;;-1.00;92.00;;;;;;5017147;28;20109;-68
2022/01/11 02:26:20;;;;;;;9.90;5.53;;;-1.00;91.50;;;;;;5019094;28;20029;-67
2022/01/11 02:28:46;;;;;;;11.45;6.57;;;-1.10;91.30;;;;;;5014972;28;20037;-68
2022/01/11 02:31:14;;;;;;;15.32;6.18;;;-1.20;91.60;;;;;;5017079;28;20042;-67
2022/01/11 02:33:46;;;;;;;10.52;6.45;;;-1.20;92.00;;;;;;5013922;28;20040;-68
2022/01/11 02:36:18;;;;;;;14.57;6.85;;;-1.30;92.00;;;;;;5018032;28;20432;-67
2022/01/11 02:38:49;;;;;;;11.80;6.65;;;-1.30;92.00;;;;;;5015703;28;20075;-68
2022/01/11 02:41:18;;;;;;;12.40;6.10;;;-1.20;92.30;;;;;;5013715;28;20080;-68
2022/01/11 02:43:48;;;;;;;13.95;7.55;;;-1.20;92.20;;;;;;5014395;28;20014;-68
2022/01/11 02:46:16;;;;;;;11.80;6.10;;;-1.10;92.20;;;;;;5016556;28;20586;-68
2022/01/11 02:48:42;;;;;;;10.98;5.90;;;-1.20;91.30;;;;;;5014982;28;20049;-68
2022/01/11 02:51:08;;;;;;;10.10;5.93;;;-1.30;91.20;;;;;;5017263;28;20040;-68
2022/01/11 02:53:44;;;;;;;17.33;9.15;;;-1.40;91.60;;;;;;5009768;28;20642;-68
2022/01/11 02:56:10;;;;;;;17.02;9.60;;;-1.40;92.10;;;;;;5014965;28;20050;-68
2022/01/11 02:58:36;;;;;;;16.67;9.07;;;-1.30;92.20;;;;;;5013646;28;20117;-68
2022/01/11 03:01:03;;;;;;;14.02;7.82;;;-1.30;92.20;;;;;;5015051;28;20577;-66
2022/01/11 03:03:29;;;;;;;15.55;8.55;;;-1.20;92.30;;;;;;5012589;28;20065;-68
2022/01/11 03:05:58;;;;;;;14.35;7.00;;;-1.20;92.10;;;;;;5012200;28;20122;-68
2022/01/11 03:08:26;;;;;;;10.30;4.95;;;-1.20;92.10;;;;;;5012912;28;20554;-68
2022/01/11 03:10:52;;;;;;;8.45;4.85;;;-1.30;90.90;;;;;;5008196;28;20049;-68
2022/01/11 03:13:19;;;;;;;9.35;5.25;;;-1.50;90.60;;;;;;5010560;28;20034;-68
2022/01/11 03:15:47;;;;;;;8.15;4.70;;;-1.70;91.10;;;;;;5007202;28;20115;-68
2022/01/11 03:18:20;;;;;;;7.38;4.75;;;-1.70;91.10;;;;;;5008619;28;20042;-68
2022/01/11 03:20:48;;;;;;;9.18;5.10;;;-1.80;91.20;;;;;;5011970;28;20447;-68
2022/01/11 03:23:14;;;;;;;9.68;5.22;;;-1.80;91.60;;;;;;5008505;28;20156;-67
2022/01/11 03:25:41;;;;;;;10.88;5.82;;;-1.80;91.80;;;;;;5009074;28;20029;-68
2022/01/11 03:28:07;;;;;;;9.30;6.22;;;-1.70;92.10;;;;;;5008696;28;20033;-68
2022/01/11 03:30:33;;;;;;;12.07;6.82;;;-1.60;92.30;;;;;;5009452;28;20029;-68
2022/01/11 03:32:59;;;;;;;7.55;4.63;;;-1.60;92.10;;;;;;5010098;28;20037;-68
2022/01/11 03:35:26;;;;;;;10.68;5.60;;;-1.80;90.60;;;;;;5008524;28;20041;-68
2022/01/11 03:37:52;;;;;;;7.05;4.47;;;-2.00;91.50;;;;;;5013333;28;20022;-68
2022/01/11 03:40:23;;;;;;;7.13;4.03;;;-2.00;91.70;;;;;;5013253;28;20037;-67
2022/01/11 03:42:49;;;;;;;8.10;4.40;;;-2.10;91.20;;;;;;5017460;28;20489;-67
2022/01/11 03:45:16;;;;;;;6.72;4.18;;;-2.10;91.90;;;;;;5011793;28;20392;-66
2022/01/11 03:47:42;;;;;;;8.10;4.78;;;-2.20;91.80;;;;;;5016072;28;20051;-67
2022/01/11 03:50:10;;;;;;;9.02;5.03;;;-2.20;92.10;;;;;;5014929;28;20084;-68
2022/01/11 03:52:36;;;;;;;13.15;7.15;;;-2.20;92.20;;;;;;5014971;28;20038;-68
2022/01/11 03:55:10;;;;;;;9.18;4.97;;;-2.10;92.40;;;;;;5010534;28;20032;-68
2022/01/11 03:57:36;;;;;;;10.88;6.65;;;-2.10;92.30;;;;;;5014293;28;20030;-68
2022/01/11 04:00:09;;;;;;;22.63;15.63;;;-2.20;92.10;;;;;;5015394;28;20079;-69
2022/01/11 04:02:34;;;;;;;9.32;6.47;;;-2.20;92.00;;;;;;5012593;28;20037;-69
2022/01/11 04:05:00;;;;;;;9.15;5.45;;;-2.30;92.30;;;;;;5016247;28;20037;-67
2022/01/11 04:07:27;;;;;;;10.60;6.45;;;-2.20;92.30;;;;;;5014422;28;20075;-69
2022/01/11 04:09:54;;;;;;;10.88;6.60;;;-2.20;92.30;;;;;;5013158;28;20115;-68
2022/01/11 04:12:21;;;;;;;17.90;12.10;;;-2.20;92.10;;;;;;5012459;28;20057;-68
2022/01/11 04:14:47;;;;;;;13.48;8.23;;;-2.20;92.30;;;;;;5013905;28;20053;-68
2022/01/11 04:17:13;;;;;;;9.45;5.00;;;-2.20;92.30;;;;;;5012551;28;20117;-68
2022/01/11 04:19:39;;;;;;;8.63;5.40;;;-2.30;92.40;;;;;;5013359;28;20046;-68
2022/01/11 04:22:05;;;;;;;11.13;5.38;;;-2.30;92.50;;;;;;5011236;28;20105;-69
2022/01/11 04:24:31;;;;;;;8.65;5.32;;;-2.30;92.70;;;;;;5011272;28;20480;-68
2022/01/11 04:26:57;;;;;;;6.57;4.03;;;-2.30;92.80;;;;;;5011049;28;20045;-69
2022/01/11 04:29:23;;;;;;;7.10;4.20;;;-2.30;91.90;;;;;;5012199;28;20489;-68
2022/01/11 04:31:49;;;;;;;4.85;3.20;;;-2.40;91.20;;;;;;5019555;28;20033;-68
2022/01/11 04:34:15;;;;;;;5.50;3.25;;;-2.60;90.80;;;;;;5015398;28;20668;-68
2022/01/11 04:36:40;;;;;;;6.32;3.80;;;-2.70;90.70;;;;;;5017412;28;20029;-68
2022/01/11 04:39:09;;;;;;;7.80;3.75;;;-2.70;91.30;;;;;;5014413;28;20164;-68
2022/01/11 04:41:35;;;;;;;6.90;4.05;;;-2.80;91.60;;;;;;5015066;28;20042;-68
2022/01/11 04:44:03;;;;;;;7.05;4.30;;;-2.90;91.70;;;;;;5014905;28;20033;-68
2022/01/11 04:46:32;;;;;;;7.28;4.30;;;-2.90;91.60;;;;;;5011008;28;20041;-68
2022/01/11 04:49:00;;;;;;;6.88;4.65;;;-2.80;92.10;;;;;;5017173;28;20056;-69
2022/01/11 04:51:26;;;;;;;9.73;6.20;;;-2.80;92.20;;;;;;5018270;28;20095;-68
2022/01/11 04:53:52;;;;;;;10.30;6.30;;;-2.70;92.40;;;;;;5014956;28;20087;-68
2022/01/11 04:56:19;;;;;;;13.23;6.93;;;-2.70;92.60;;;;;;5016969;28;20388;-68
2022/01/11 04:58:45;;;;;;;6.18;4.20;;;-2.60;92.70;;;;;;5015821;28;20045;-68
2022/01/11 05:01:10;;;;;;;7.07;4.30;;;-2.60;92.00;;;;;;5014919;28;20108;-68
2022/01/11 05:03:36;;;;;;;9.38;4.40;;;-2.70;91.80;;;;;;5014986;28;20034;-68
2022/01/11 05:06:04;;;;;;;7.60;3.92;;;-2.70;92.30;;;;;;5017113;28;20478;-68
2022/01/11 05:08:36;;;;;;;6.70;3.75;;;-2.80;91.70;;;;;;5016288;28;20033;-68
2022/01/11 05:11:01;;;;;;;4.97;3.13;;;-2.80;91.90;;;;;;5018766;28;20128;-68
2022/01/11 05:13:27;;;;;;;7.50;3.25;;;-2.90;91.50;;;;;;5017562;28;20496;-68
2022/01/11 05:15:53;;;;;;;6.00;3.33;;;-2.90;91.00;;;;;;5018779;28;20026;-66
2022/01/11 05:18:21;;;;;;;7.50;4.07;;;-3.10;91.00;;;;;;5014812;28;20391;-68
2022/01/11 05:20:47;;;;;;;5.32;3.60;;;-3.10;91.30;;;;;;5017453;28;20041;-68
2022/01/11 05:23:14;;;;;;;6.90;4.00;;;-3.10;91.80;;;;;;5014264;28;20040;-68
2022/01/11 05:25:41;;;;;;;7.05;4.50;;;-3.10;91.90;;;;;;5016032;28;20033;-68
2022/01/11 05:28:06;;;;;;;8.60;5.20;;;-3.10;92.20;;;;;;5020879;28;20044;-68
2022/01/11 05:30:32;;;;;;;10.50;5.75;;;-3.10;92.20;;;;;;5014840;28;20045;-67
2022/01/11 05:32:58;;;;;;;8.68;5.03;;;-3.10;92.40;;;;;;5018099;28;20480;-68
2022/01/11 05:35:25;;;;;;;9.38;5.90;;;-3.10;92.60;;;;;;5019266;28;20053;-68
2022/01/11 05:37:52;;;;;;;9.63;5.88;;;-3.10;92.70;;;;;;5017825;28;20037;-67
2022/01/11 05:40:19;;;;;;;13.45;7.40;;;-3.10;92.60;;;;;;5018436;28;20082;-68
2022/01/11 05:42:45;;;;;;;13.40;7.43;;;-3.10;92.80;;;;;;5015338;28;20030;-68
2022/01/11 05:45:12;;;;;;;7.20;4.40;;;-3.10;92.80;;;;;;5016386;28;20033;-68
2022/01/11 05:47:39;;;;;;;7.95;4.50;;;-3.00;92.10;;;;;;5014587;28;20057;-67
2022/01/11 05:50:07;;;;;;;9.93;5.68;;;-3.10;91.70;;;;;;5016182;28;20109;-68
2022/01/11 05:52:35;;;;;;;7.38;4.78;;;-3.20;92.20;;;;;;5018677;28;20103;-68
2022/01/11 05:55:02;;;;;;;5.78;3.90;;;-3.20;92.50;;;;;;5020299;28;20170;-68
2022/01/11 05:57:28;;;;;;;8.52;4.70;;;-3.30;91.80;;;;;;5017408;28;20033;-67
2022/01/11 05:59:54;;;;;;;7.90;4.18;;;-3.30;91.60;;;;;;5017443;28;20102;-68
2022/01/11 06:02:20;;;;;;;12.27;5.25;;;-3.30;91.90;;;;;;5018329;28;20037;-67
2022/01/11 06:04:45;;;;;;;7.63;4.53;;;-3.40;91.90;;;;;;5016706;28;20454;-67
2022/01/11 06:07:11;;;;;;;16.02;7.88;;;-3.40;91.70;;;;;;5011642;28;20740;-68
2022/01/11 06:09:37;;;;;;;22.05;12.32;;;-3.40;92.20;;;;;;5014422;28;20109;-67
2022/01/11 06:12:03;;;;;;;17.08;10.13;;;-3.30;92.70;;;;;;5014481;28;20065;-68
2022/01/11 06:14:28;;;;;;;7.70;4.43;;;-3.20;92.90;;;;;;5014894;28;20026;-68
2022/01/11 06:16:54;;;;;;;6.45;4.40;;;-3.30;91.80;;;;;;5014569;28;20099;-67
2022/01/11 06:19:19;;;;;;;9.98;3.83;;;-3.40;91.40;;;;;;5014682;28;20034;-68
2022/01/11 06:21:45;;;;;;;7.88;3.72;;;-3.50;91.30;;;;;;5015057;28;20042;-67
2022/01/11 06:24:11;;;;;;;8.15;4.10;;;-3.50;91.30;;;;;;5017866;28;20053;-68
2022/01/11 06:26:36;;;;;;;12.85;4.45;;;-3.60;91.40;;;;;;5014784;28;20108;-68
2022/01/11 06:29:03;;;;;;;11.80;7.00;;;-3.60;91.80;;;;;;5018966;28;20056;-68
2022/01/11 06:31:30;;;;;;;26.95;14.07;;;-3.50;92.00;;;;;;5018072;28;20068;-68
2022/01/11 06:33:56;;;;;;;26.52;12.90;;;-3.50;92.20;;;;;;5020533;28;20420;-68
2022/01/11 06:36:22;;;;;;;16.88;9.38;;;-3.50;92.30;;;;;;5017387;28;20095;-68
2022/01/11 06:38:50;;;;;;;21.80;11.88;;;-3.50;92.20;;;;;;5014040;28;20567;-69
2022/01/11 06:41:16;;;;;;;43.95;22.45;;;-3.50;92.20;;;;;;5018716;28;20455;-68
2022/01/11 06:43:42;;;;;;;31.70;18.13;;;-3.40;92.40;;;;;;5018682;28;20080;-68
2022/01/11 06:46:08;;;;;;;15.48;8.35;;;-3.40;92.40;;;;;;5019516;28;20512;-67
2022/01/11 06:48:36;;;;;;;13.43;7.55;;;-3.40;92.10;;;;;;5020038;28;20041;-66
2022/01/11 06:51:03;;;;;;;11.23;6.85;;;-3.40;91.80;;;;;;5020505;28;20033;-67
2022/01/11 06:53:30;;;;;;;13.43;8.63;;;-3.50;92.00;;;;;;5019981;28;20087;-68
2022/01/11 06:55:58;;;;;;;31.88;18.25;;;-3.40;92.00;;;;;;5020048;28;20037;-67
2022/01/11 06:58:24;;;;;;;39.78;19.33;;;-3.40;92.30;;;;;;5019696;28;20062;-67
2022/01/11 07:00:50;;;;;;;54.38;25.95;;;-3.50;92.40;;;;;;5019453;28;20074;-67
2022/01/11 07:03:16;;;;;;;55.33;30.90;;;-3.40;92.60;;;;;;5016960;28;20511;-67
2022/01/11 07:05:42;;;;;;;48.97;27.73;;;-3.30;92.90;;;;;;5020015;28;20132;-67
2022/01/11 07:08:09;;;;;;;47.50;25.25;;;-3.30;93.00;;;;;;5016709;28;20034;-67
2022/01/11 07:10:35;;;;;;;42.35;24.58;;;-3.30;93.10;;;;;;5018352;28;20021;-67
2022/01/11 07:13:02;;;;;;;41.08;22.73;;;-3.20;93.20;;;;;;5025993;28;20444;-67
2022/01/11 07:15:28;;;;;;;16.83;9.63;;;-3.10;93.40;;;;;;5023525;28;20042;-67
2022/01/11 07:17:54;;;;;;;14.40;7.97;;;-3.00;92.90;;;;;;5024283;28;20072;-67
2022/01/11 07:20:20;;;;;;;15.55;9.88;;;-3.10;92.20;;;;;;5018389;28;20037;-67
2022/01/11 07:22:45;;;;;;;22.85;12.70;;;-3.10;92.60;;;;;;5021815;28;20025;-67
2022/01/11 07:25:11;;;;;;;30.27;15.75;;;-3.00;93.00;;;;;;5018812;28;20040;-68
2022/01/11 07:27:37;;;;;;;36.15;19.73;;;-2.90;93.00;;;;;;5021835;28;20116;-69
2022/01/11 07:30:07;;;;;;;37.25;18.95;;;-2.70;93.50;;;;;;5016868;28;20038;-68
2022/01/11 07:32:35;;;;;;;45.47;24.30;;;-2.60;93.40;;;;;;5019025;28;20044;-68
2022/01/11 07:35:02;;;;;;;57.55;25.27;;;-2.40;93.70;;;;;;5023349;28;20432;-68
2022/01/11 07:37:27;;;;;;;52.00;24.60;;;-2.20;93.80;;;;;;5016234;28;20107;-68
2022/01/11 07:39:53;;;;;;;47.22;25.05;;;-2.00;93.70;;;;;;5018930;28;20433;-68
2022/01/11 07:42:19;;;;;;;55.70;29.33;;;-1.70;93.50;;;;;;5016913;28;20459;-65
2022/01/11 07:44:46;;;;;;;48.97;28.38;;;-1.40;93.30;;;;;;5019961;28;20049;-68
2022/01/11 07:47:12;;;;;;;48.47;26.85;;;-1.20;93.10;;;;;;5017061;28;20058;-68
2022/01/11 07:49:37;;;;;;;46.75;25.98;;;-0.90;92.80;;;;;;5019745;28;20259;-69
2022/01/11 07:52:03;;;;;;;43.28;24.27;;;-0.70;92.60;;;;;;5021093;28;20033;-68
2022/01/11 07:54:29;;;;;;;37.85;20.27;;;-0.50;92.20;;;;;;5019253;28;20495;-68
2022/01/11 07:56:55;;;;;;;50.95;25.73;;;-0.50;92.10;;;;;;5015054;28;20034;-68
2022/01/11 07:59:20;;;;;;;40.78;19.92;;;-0.40;92.10;;;;;;5016337;28;20072;-68
2022/01/11 08:01:46;;;;;;;36.47;19.98;;;-0.40;92.30;;;;;;5018702;28;20156;-68
2022/01/11 08:04:12;;;;;;;39.47;20.90;;;-0.30;92.30;;;;;;5015726;28;20095;-68
2022/01/11 08:06:38;;;;;;;32.97;18.05;;;-0.10;92.40;;;;;;5020698;28;20247;-68
2022/01/11 08:09:04;;;;;;;33.90;19.00;;;0.00;92.20;;;;;;5022202;28;20497;-69
2022/01/11 08:11:32;;;;;;;26.30;15.23;;;0.20;91.90;;;;;;5005655;28;20030;-69
2022/01/11 08:13:58;;;;;;;30.40;17.65;;;0.30;91.90;;;;;;5019704;28;20037;-68
2022/01/11 08:16:23;;;;;;;28.88;15.40;;;0.40;91.90;;;;;;5017430;28;20037;-68
2022/01/11 08:18:49;;;;;;;21.85;12.57;;;0.60;92.10;;;;;;5018507;28;20112;-68
2022/01/11 08:21:15;;;;;;;22.90;12.98;;;0.80;92.10;;;;;;5016703;28;20084;-68
2022/01/11 08:23:40;;;;;;;22.42;12.60;;;1.00;91.70;;;;;;5018312;28;20033;-68
2022/01/11 08:26:06;;;;;;;14.73;9.45;;;1.10;91.50;;;;;;5019365;28;20191;-68
2022/01/11 08:28:33;;;;;;;17.20;10.93;;;1.30;91.30;;;;;;5021875;28;20113;-68
2022/01/11 08:30:59;;;;;;;14.90;9.70;;;1.40;90.80;;;;;;5020400;28;20404;-68
2022/01/11 08:33:25;;;;;;;12.60;7.13;;;1.60;90.40;;;;;;5019100;28;20026;-70
2022/01/11 08:35:51;;;;;;;17.58;10.65;;;1.70;90.40;;;;;;5016267;28;20028;-69
2022/01/11 08:38:17;;;;;;;18.92;11.77;;;1.90;88.70;;;;;;5020131;28;20040;-68
2022/01/11 08:40:44;;;;;;;10.60;6.97;;;2.00;87.10;;;;;;5020055;28;20037;-68
2022/01/11 08:43:09;;;;;;;23.35;14.23;;;2.10;87.30;;;;;;5020310;28;20049;-69
2022/01/11 08:45:36;;;;;;;19.48;12.05;;;2.20;86.40;;;;;;5017646;28;20053;-69
2022/01/11 08:48:01;;;;;;;11.10;6.28;;;2.30;85.30;;;;;;5015544;28;20049;-68
2022/01/11 08:50:27;;;;;;;10.35;6.90;;;2.50;85.30;;;;;;5020838;28;20109;-69
2022/01/11 08:52:53;;;;;;;17.20;11.40;;;2.60;82.70;;;;;;5017393;28;20518;-68
2022/01/11 08:55:19;;;;;;;34.22;23.55;;;2.70;82.70;;;;;;5019787;28;20032;-68
2022/01/11 08:57:44;;;;;;;13.18;8.80;;;2.80;80.60;;;;;;5020546;28;20026;-69
2022/01/11 09:00:18;;;;;;;20.58;13.07;;;2.90;81.90;;;;;;5018130;28;20112;-69
2022/01/11 09:02:48;;;;;;;13.95;9.02;;;3.00;80.60;;;;;;5022259;28;20396;-69
2022/01/11 09:05:15;;;;;;;14.70;9.05;;;3.10;79.50;;;;;;5016461;28;20034;-69
2022/01/11 09:07:41;;;;;;;9.25;6.78;;;3.10;78.10;;;;;;5017314;28;20041;-69
2022/01/11 09:10:07;;;;;;;9.70;5.90;;;3.10;76.10;;;;;;5016741;28;20033;-68
2022/01/11 09:12:34;;;;;;;8.85;5.78;;;3.10;75.30;;;;;;5017710;28;20403;-68
2022/01/11 09:15:01;;;;;;;8.85;5.65;;;3.10;74.60;;;;;;5020288;28;20053;-68
2022/01/11 09:17:26;;;;;;;7.38;5.22;;;3.10;75.30;;;;;;5015146;28;20084;-68
2022/01/11 09:19:52;;;;;;;8.85;5.30;;;3.10;75.00;;;;;;5015860;28;20408;-69
2022/01/11 09:22:18;;;;;;;9.02;5.10;;;3.20;75.60;;;;;;5021028;28;20611;-69
2022/01/11 09:24:44;;;;;;;6.95;4.88;;;3.20;75.60;;;;;;5013614;28;20168;-68
2022/01/11 09:27:10;;;;;;;9.02;6.50;;;3.20;74.40;;;;;;5015144;28;20112;-68
2022/01/11 09:29:37;;;;;;;10.25;5.78;;;3.30;75.30;;;;;;5017222;28;20444;-68
2022/01/11 09:32:04;;;;;;;7.80;4.82;;;3.40;74.00;;;;;;5015658;28;20033;-68
2022/01/11 09:34:30;;;;;;;8.45;6.60;;;3.40;72.40;;;;;;5016537;28;20145;-69
2022/01/11 09:36:56;;;;;;;9.38;6.22;;;3.40;73.40;;;;;;5022841;28;20551;-68
2022/01/11 09:39:23;;;;;;;9.63;5.25;;;3.50;73.40;;;;;;5018008;28;20053;-68
2022/01/11 09:41:49;;;;;;;8.75;5.15;;;3.50;71.10;;;;;;5017627;28;20022;-68
2022/01/11 09:44:15;;;;;;;10.30;5.97;;;3.50;71.40;;;;;;5018881;28;20080;-69
2022/01/11 09:46:41;;;;;;;8.45;5.45;;;3.40;71.90;;;;;;5020648;28;20574;-68
2022/01/11 09:49:07;;;;;;;7.78;5.00;;;3.30;71.40;;;;;;5013103;28;20133;-68
2022/01/11 09:51:35;;;;;;;11.70;5.57;;;3.30;70.90;;;;;;5017281;28;20033;-68
2022/01/11 09:54:02;;;;;;;8.82;5.85;;;3.30;71.70;;;;;;5014216;28;20033;-68
2022/01/11 09:56:27;;;;;;;9.35;5.97;;;3.40;71.00;;;;;;5021424;28;20057;-69
2022/01/11 09:58:53;;;;;;;8.93;5.53;;;3.40;69.50;;;;;;5014654;28;20056;-68
2022/01/11 10:01:19;;;;;;;10.20;6.55;;;3.40;69.50;;;;;;5016645;28;20069;-69
2022/01/11 10:04:04;;;;;;;9.38;6.20;;;3.40;70.30;;;;;;5018038;28;20021;-68
2022/01/11 10:06:35;;;;;;;8.95;6.10;;;3.50;69.60;;;;;;5016100;28;20014;-68
2022/01/11 10:09:18;;;;;;;9.20;5.55;;;3.40;69.50;;;;;;5015867;28;20734;-68
2022/01/11 10:11:49;;;;;;;7.95;5.53;;;3.40;69.50;;;;;;5015325;28;20040;-68
2022/01/11 10:14:34;;;;;;;9.00;5.33;;;3.50;70.60;;;;;;5019549;28;20021;-68
2022/01/11 10:17:19;;;;;;;8.90;6.22;;;3.60;69.10;;;;;;5020575;28;20286;-69
2022/01/11 10:19:50;;;;;;;10.55;6.70;;;3.60;67.60;;;;;;5019384;28;20112;-68
2022/01/11 10:22:18;;;;;;;8.93;5.70;;;3.60;69.60;;;;;;5015285;28;20021;-68
2022/01/11 10:24:47;;;;;;;9.43;5.55;;;3.60;67.40;;;;;;5016976;28;20045;-68
2022/01/11 10:27:21;;;;;;;7.88;5.28;;;3.50;66.90;;;;;;5016731;28;20425;-67
2022/01/11 10:29:49;;;;;;;8.50;5.72;;;3.50;67.10;;;;;;5018601;28;20489;-68
2022/01/11 10:32:15;;;;;;;9.85;5.75;;;3.60;67.70;;;;;;5017680;28;20026;-67
2022/01/11 10:34:43;;;;;;;9.05;5.45;;;3.50;66.50;;;;;;5017716;28;20025;-68
2022/01/11 10:37:10;;;;;;;7.93;5.68;;;3.50;67.30;;;;;;5017251;28;20394;-68
2022/01/11 10:39:40;;;;;;;6.72;4.90;;;3.50;68.30;;;;;;5019426;28;20420;-68
2022/01/11 10:42:23;;;;;;;7.38;5.05;;;3.60;67.50;;;;;;5018654;28;20163;-68
2022/01/11 10:44:53;;;;;;;8.05;5.45;;;3.70;66.50;;;;;;5019365;28;20032;-67
2022/01/11 10:47:29;;;;;;;8.60;5.07;;;3.60;64.60;;;;;;5021630;28;20080;-67
2022/01/11 10:50:07;;;;;;;7.82;5.05;;;3.60;64.90;;;;;;5020428;28;20025;-68
2022/01/11 10:52:34;;;;;;;7.80;4.97;;;3.60;65.50;;;;;;5018586;28;20037;-68
2022/01/11 10:55:02;;;;;;;9.00;6.05;;;3.60;65.20;;;;;;5023370;28;20109;-68
2022/01/11 10:57:32;;;;;;;7.82;5.38;;;3.50;65.80;;;;;;5020120;28;20057;-68
2022/01/11 11:00:03;;;;;;;15.07;5.38;;;3.60;66.90;;;;;;5019043;28;20033;-69
2022/01/11 11:02:29;;;;;;;7.80;5.18;;;3.60;66.50;;;;;;5020431;28;20022;-68
2022/01/11 11:04:55;;;;;;;8.48;4.93;;;3.50;65.60;;;;;;5018714;28;20045;-68
2022/01/11 11:07:23;;;;;;;9.60;5.03;;;3.50;66.40;;;;;;5020926;28;21170;-69
2022/01/11 11:09:52;;;;;;;5.38;4.22;;;3.50;65.80;;;;;;5022072;28;20060;-69
2022/01/11 11:12:21;;;;;;;6.30;4.43;;;3.50;63.90;;;;;;5019358;28;20109;-70
2022/01/11 11:14:53;;;;;;;6.68;3.80;;;3.50;60.90;;;;;;5019909;28;20044;-69
2022/01/11 11:17:35;;;;;;;6.35;4.15;;;3.50;61.10;;;;;;5018146;28;20053;-69
2022/01/11 11:20:05;;;;;;;7.05;4.32;;;3.50;62.00;;;;;;5019289;28;20036;-69
2022/01/11 11:22:31;;;;;;;7.45;4.15;;;3.50;61.10;;;;;;5020676;28;20103;-68
2022/01/11 11:24:58;;;;;;;4.80;3.50;;;3.50;60.30;;;;;;5024015;28;20034;-70
2022/01/11 11:27:25;;;;;;;62.08;36.70;;;3.60;60.20;;;;;;5016965;28;20018;-69
2022/01/11 11:29:51;;;;;;;69.97;45.75;;;3.60;60.50;;;;;;5019905;28;20041;-71
2022/01/11 11:32:19;;;;;;;11.93;7.93;;;3.60;60.70;;;;;;5021317;28;20034;-71
2022/01/11 11:34:49;;;;;;;10.38;9.43;;;3.70;60.30;;;;;;5020321;28;20044;-70
2022/01/11 11:37:19;;;;;;;6.55;4.32;;;3.70;59.20;;;;;;5019820;28;20037;-71
2022/01/11 11:39:46;;;;;;;8.15;4.78;;;3.70;59.20;;;;;;5024477;28;20026;-70
2022/01/11 11:42:17;;;;;;;7.78;4.85;;;3.70;59.70;;;;;;5021537;28;20030;-71
2022/01/11 11:44:44;;;;;;;6.95;4.22;;;3.80;60.00;;;;;;5020357;28;20021;-71
2022/01/11 11:47:10;;;;;;;7.25;5.53;;;3.80;60.30;;;;;;5019857;28;20395;-71
2022/01/11 11:49:48;;;;;;;6.90;5.00;;;3.80;61.40;;;;;;5020313;28;20061;-70
2022/01/11 11:52:30;;;;;;;7.20;4.97;;;3.90;62.10;;;;;;5022385;28;20362;-70
2022/01/11 11:54:58;;;;;;;7.88;4.85;;;3.90;60.30;;;;;;5016576;28;20025;-70
2022/01/11 11:57:31;;;;;;;7.00;4.90;;;4.00;61.10;;;;;;5013329;28;20025;-68
2022/01/11 12:00:07;;;;;;;7.63;3.95;;;4.00;60.50;;;;;;5018701;28;20059;-69
2022/01/11 12:02:38;;;;;;;6.88;4.47;;;4.00;60.90;;;;;;5017761;28;20032;-68
2022/01/11 12:05:06;;;;;;;7.15;5.45;;;4.10;60.40;;;;;;5020193;28;20088;-69
2022/01/11 12:07:40;;;;;;;6.40;4.72;;;4.10;60.10;;;;;;5016672;28;20040;-69
2022/01/11 12:10:17;;;;;;;6.22;3.90;;;4.10;61.50;;;;;;5017481;28;20141;-69
2022/01/11 12:12:54;;;;;;;9.15;4.65;;;4.10;60.60;;;;;;5019946;28;20033;-70
2022/01/11 12:15:31;;;;;;;6.18;3.85;;;4.20;61.10;;;;;;5017993;28;20119;-69
2022/01/11 12:17:57;;;;;;;5.55;3.42;;;4.20;60.90;;;;;;5020564;28;20152;-68
2022/01/11 12:20:51;;;;;;;4.95;3.30;;;4.30;61.00;;;;;;5017962;28;20030;-68
2022/01/11 12:23:36;;;;;;;8.13;3.63;;;4.30;60.60;;;;;;5012666;28;20041;-69
2022/01/11 12:26:23;;;;;;;6.95;3.40;;;4.30;61.90;;;;;;5016966;28;20057;-69
2022/01/11 12:29:11;;;;;;;6.75;3.88;;;4.40;61.60;;;;;;5022024;28;20065;-71
2022/01/11 12:31:45;;;;;;;5.63;3.45;;;4.50;63.40;;;;;;5015567;28;20488;-69
2022/01/11 12:34:13;;;;;;;6.50;3.92;;;4.50;62.70;;;;;;5016842;28;20030;-69
2022/01/11 12:36:50;;;;;;;10.35;3.90;;;4.60;62.20;;;;;;5021383;28;20093;-68
2022/01/11 12:39:16;;;;;;;6.65;4.18;;;4.70;61.90;;;;;;5019247;28;20574;-69
2022/01/11 12:41:42;;;;;;;5.15;3.70;;;4.80;61.80;;;;;;5019813;28;20056;-69
2022/01/11 12:46:50;;;;;;;9.90;6.05;;;4.90;61.50;;;;;;5021703;28;21043;-69
2022/01/11 12:49:16;;;;;;;6.95;4.38;;;4.90;60.70;;;;;;5019681;28;20172;-69
2022/01/11 12:51:51;;;;;;;6.60;4.60;;;4.90;61.50;;;;;;5014876;28;20107;-70
2022/01/11 12:54:27;;;;;;;6.07;3.97;;;4.90;61.30;;;;;;5017501;28;20495;-69